Time;durP1;ratioP1;P1;durP2;ratioP2;P2;SDS_P1;SDS_P2;PMS_P1;PMS_P2;Temp;Humidity;BMP_temperature;BMP_pressure;BME280_temperature;BME280_humidity;BME280_pressure;Samples;Min_cycle;Max_cycle;Signal;HPM_P1;HPM_P2
2023/07/09 00:00:30;;;;;;;18.23;11.68;;;;;;;;;;5230923;28;20115;-71
2023/07/09 00:03:00;;;;;;;19.75;10.52;;;;;;;;;;5230604;28;20028;-71
2023/07/09 00:05:30;;;;;;;18.92;11.73;;;;;;;;;;5230680;28;20021;-71
2023/07/09 00:08:00;;;;;;;19.92;10.85;;;;;;;;;;5230298;28;20032;-71
2023/07/09 00:10:31;;;;;;;20.13;12.27;;;;;;;;;;5230191;28;20483;-71
2023/07/09 00:13:01;;;;;;;22.65;13.68;;;;;;;;;;5230729;28;20128;-71
2023/07/09 00:15:31;;;;;;;25.35;11.80;;;;;;;;;;5230550;28;20066;-71
2023/07/09 00:18:02;;;;;;;23.20;12.23;;;;;;;;;;5230041;28;20017;-71
2023/07/09 00:20:32;;;;;;;25.73;12.45;;;;;;;;;;5229371;28;20060;-71
2023/07/09 00:23:04;;;;;;;18.17;10.45;;;;;;;;;;5227210;28;20151;-71
2023/07/09 00:25:35;;;;;;;16.15;10.10;;;;;;;;;;5227119;28;20032;-71
2023/07/09 00:28:09;;;;;;;19.55;10.10;;;;;;;;;;5226898;28;20055;-71
2023/07/09 00:30:39;;;;;;;19.55;10.88;;;;;;;;;;5227171;28;20032;-71
2023/07/09 00:33:11;;;;;;;18.17;10.52;;;;;;;;;;5227002;28;20025;-70
2023/07/09 00:35:42;;;;;;;21.15;11.23;;;;;;;;;;5226708;28;20059;-70
2023/07/09 00:38:14;;;;;;;20.55;11.70;;;;;;;;;;5227046;28;20032;-71
2023/07/09 00:40:46;;;;;;;18.30;10.77;;;;;;;;;;5227008;28;20025;-71
2023/07/09 00:43:16;;;;;;;13.27;9.02;;;;;;;;;;5226824;28;20032;-71
2023/07/09 00:46:06;;;;;;;14.40;10.20;;;;;;;;;;5226067;28;20017;-71
2023/07/09 00:48:37;;;;;;;19.30;10.70;;;;;;;;;;5226392;28;20021;-71
2023/07/09 00:51:25;;;;;;;18.05;10.35;;;;;;;;;;5226830;28;20032;-71
2023/07/09 00:53:58;;;;;;;19.50;10.48;;;;;;;;;;5227108;28;20089;-71
2023/07/09 00:56:32;;;;;;;23.30;11.48;;;;;;;;;;5208374;28;20479;-71
2023/07/09 00:59:04;;;;;;;15.65;10.77;;;;;;;;;;5226547;28;20082;-71
2023/07/09 01:01:34;;;;;;;16.02;10.32;;;;;;;;;;5226651;28;20044;-70
2023/07/09 01:04:05;;;;;;;14.35;9.45;;;;;;;;;;5227463;28;20029;-71
2023/07/09 01:06:38;;;;;;;12.30;8.73;;;;;;;;;;5225902;28;20025;-71
2023/07/09 01:09:08;;;;;;;14.48;9.07;;;;;;;;;;5226286;28;20029;-70
2023/07/09 01:11:39;;;;;;;12.65;9.52;;;;;;;;;;5226405;28;20489;-71
2023/07/09 01:14:11;;;;;;;13.95;7.25;;;;;;;;;;5226400;28;20021;-71
2023/07/09 01:16:43;;;;;;;10.68;7.82;;;;;;;;;;5226325;28;20023;-71
2023/07/09 01:19:16;;;;;;;13.95;9.15;;;;;;;;;;5226056;28;20024;-71
2023/07/09 01:21:46;;;;;;;16.05;9.85;;;;;;;;;;5227086;28;20403;-71
2023/07/09 01:24:37;;;;;;;22.45;9.00;;;;;;;;;;5226103;28;20098;-71
2023/07/09 01:27:08;;;;;;;18.55;11.20;;;;;;;;;;5225690;28;20474;-71
2023/07/09 01:29:38;;;;;;;17.90;10.57;;;;;;;;;;5225760;28;20028;-71
2023/07/09 01:32:10;;;;;;;21.92;10.82;;;;;;;;;;5225595;28;20452;-71
2023/07/09 01:34:40;;;;;;;19.85;10.85;;;;;;;;;;5225470;28;20040;-71
2023/07/09 01:37:11;;;;;;;20.35;11.57;;;;;;;;;;5225635;28;20017;-71
2023/07/09 01:39:41;;;;;;;20.98;12.07;;;;;;;;;;5225893;28;20602;-71
2023/07/09 01:42:12;;;;;;;24.30;11.85;;;;;;;;;;5225559;28;20029;-71
2023/07/09 01:44:45;;;;;;;19.10;11.77;;;;;;;;;;5225902;28;20106;-71
2023/07/09 01:47:16;;;;;;;15.15;9.88;;;;;;;;;;5225199;28;20387;-71
2023/07/09 01:49:47;;;;;;;20.83;11.55;;;;;;;;;;5225839;28;20028;-71
2023/07/09 01:52:18;;;;;;;18.45;11.18;;;;;;;;;;5225725;28;20020;-71
2023/07/09 01:54:50;;;;;;;16.45;10.38;;;;;;;;;;5225343;28;20075;-71
2023/07/09 02:00:10;;;;;;;22.48;11.45;;;;;;;;;;5225331;28;20029;-71
2023/07/09 02:02:43;;;;;;;15.18;10.77;;;;;;;;;;5225452;28;20119;-71
2023/07/09 02:05:16;;;;;;;16.33;10.65;;;;;;;;;;5225178;28;20381;-71
2023/07/09 02:07:47;;;;;;;19.58;11.55;;;;;;;;;;5225135;28;20025;-71
2023/07/09 02:10:17;;;;;;;18.25;11.52;;;;;;;;;;5225395;28;20026;-71
2023/07/09 02:12:48;;;;;;;16.27;10.75;;;;;;;;;;5225223;28;20106;-71
2023/07/09 02:15:19;;;;;;;17.27;10.85;;;;;;;;;;5224855;28;20033;-71
2023/07/09 02:17:49;;;;;;;19.67;11.10;;;;;;;;;;5224605;28;20044;-71
2023/07/09 02:20:20;;;;;;;17.95;11.23;;;;;;;;;;5225339;28;20487;-71
2023/07/09 02:22:50;;;;;;;17.92;10.95;;;;;;;;;;5225362;28;20040;-71
2023/07/09 02:25:20;;;;;;;21.02;11.80;;;;;;;;;;5225243;28;20116;-71
2023/07/09 02:27:50;;;;;;;18.13;11.15;;;;;;;;;;5224304;28;20034;-71
2023/07/09 02:30:21;;;;;;;17.38;11.05;;;;;;;;;;5224980;28;20090;-71
2023/07/09 02:32:54;;;;;;;17.92;11.60;;;;;;;;;;5225173;28;20021;-71
2023/07/09 02:35:24;;;;;;;21.30;12.10;;;;;;;;;;5224712;28;20013;-71
2023/07/09 02:37:54;;;;;;;15.68;11.30;;;;;;;;;;5224574;28;20021;-70
2023/07/09 02:40:24;;;;;;;17.23;11.13;;;;;;;;;;5224508;28;20024;-71
2023/07/09 02:42:55;;;;;;;18.80;11.48;;;;;;;;;;5224989;28;20367;-71
2023/07/09 02:45:25;;;;;;;19.13;11.35;;;;;;;;;;5224277;28;20024;-71
2023/07/09 02:47:55;;;;;;;15.38;10.07;;;;;;;;;;5228488;28;20470;-71
2023/07/09 02:50:25;;;;;;;15.35;9.68;;;;;;;;;;5225651;28;20017;-70
2023/07/09 02:52:56;;;;;;;18.52;11.05;;;;;;;;;;5224254;28;20075;-71
2023/07/09 02:55:26;;;;;;;20.15;11.07;;;;;;;;;;5217026;28;20021;-71
2023/07/09 02:57:56;;;;;;;17.55;10.02;;;;;;;;;;5218561;28;20489;-71
2023/07/09 03:00:27;;;;;;;18.60;10.93;;;;;;;;;;5224565;28;20013;-71
2023/07/09 03:02:57;;;;;;;20.10;9.85;;;;;;;;;;5224591;28;20040;-71
2023/07/09 03:05:27;;;;;;;16.52;10.80;;;;;;;;;;5224602;28;20027;-71
2023/07/09 03:07:58;;;;;;;20.15;10.35;;;;;;;;;;5223979;28;20025;-71
2023/07/09 03:10:28;;;;;;;16.38;11.13;;;;;;;;;;5224335;28;20047;-71
2023/07/09 03:12:59;;;;;;;15.50;10.73;;;;;;;;;;5224312;28;20021;-70
2023/07/09 03:15:29;;;;;;;21.02;10.77;;;;;;;;;;5224791;28;20429;-71
2023/07/09 03:17:59;;;;;;;17.85;10.65;;;;;;;;;;5223977;28;20033;-71
2023/07/09 03:20:29;;;;;;;17.25;10.20;;;;;;;;;;5224346;28;20378;-71
2023/07/09 03:23:00;;;;;;;14.95;9.00;;;;;;;;;;5224436;28;20075;-71
2023/07/09 03:25:30;;;;;;;19.88;10.40;;;;;;;;;;5224190;28;20470;-71
2023/07/09 03:28:00;;;;;;;18.30;10.23;;;;;;;;;;5223976;28;20025;-71
2023/07/09 03:30:31;;;;;;;18.05;9.98;;;;;;;;;;5224036;28;20470;-71
2023/07/09 03:33:04;;;;;;;19.40;10.60;;;;;;;;;;5224447;28;20024;-71
2023/07/09 03:35:34;;;;;;;17.23;10.52;;;;;;;;;;5224013;28;20009;-71
2023/07/09 03:38:05;;;;;;;19.48;10.02;;;;;;;;;;5224006;28;20033;-71
2023/07/09 03:40:37;;;;;;;17.27;10.68;;;;;;;;;;5223943;28;20028;-71
2023/07/09 03:43:08;;;;;;;20.88;11.15;;;;;;;;;;5224252;28;20056;-71
2023/07/09 03:45:39;;;;;;;14.77;10.15;;;;;;;;;;5224117;28;20103;-71
2023/07/09 03:48:09;;;;;;;16.88;9.45;;;;;;;;;;5223742;28;20112;-71
2023/07/09 03:50:40;;;;;;;20.75;11.13;;;;;;;;;;5224130;28;20475;-71
2023/07/09 03:53:11;;;;;;;15.65;9.07;;;;;;;;;;5223793;28;20479;-71
2023/07/09 03:55:42;;;;;;;18.02;9.27;;;;;;;;;;5214003;28;20045;-71
2023/07/09 03:58:12;;;;;;;14.90;9.23;;;;;;;;;;5224232;28;20029;-71
2023/07/09 04:00:42;;;;;;;19.65;9.80;;;;;;;;;;5227092;28;20031;-71
2023/07/09 04:03:13;;;;;;;13.25;8.68;;;;;;;;;;5227765;28;20043;-71
2023/07/09 04:05:43;;;;;;;14.38;8.52;;;;;;;;;;5227099;28;20441;-71
2023/07/09 04:08:13;;;;;;;27.00;8.77;;;;;;;;;;5227906;28;20025;-71
2023/07/09 04:10:44;;;;;;;12.20;9.10;;;;;;;;;;5227755;28;20017;-71
2023/07/09 04:13:14;;;;;;;12.98;8.93;;;;;;;;;;5227599;28;20024;-71
2023/07/09 04:15:45;;;;;;;14.70;7.85;;;;;;;;;;5227660;28;20025;-71
2023/07/09 04:18:15;;;;;;;15.57;8.80;;;;;;;;;;5226960;28;20367;-71
2023/07/09 04:21:01;;;;;;;15.77;9.60;;;;;;;;;;5227406;28;20035;-71
2023/07/09 04:23:31;;;;;;;17.55;9.77;;;;;;;;;;5227501;28;20422;-70
2023/07/09 04:26:02;;;;;;;15.02;9.65;;;;;;;;;;5227068;28;20025;-71
2023/07/09 04:28:33;;;;;;;15.90;9.25;;;;;;;;;;5227737;28;20374;-71
2023/07/09 04:31:03;;;;;;;13.98;8.38;;;;;;;;;;5227249;28;20028;-71
2023/07/09 04:33:35;;;;;;;13.60;8.35;;;;;;;;;;5227539;28;20041;-71
2023/07/09 04:36:06;;;;;;;12.65;8.57;;;;;;;;;;5226778;28;20063;-71
2023/07/09 04:38:36;;;;;;;14.80;9.10;;;;;;;;;;5227169;28;20093;-71
2023/07/09 04:41:07;;;;;;;15.38;7.68;;;;;;;;;;5226900;28;20085;-71
2023/07/09 04:43:37;;;;;;;16.83;8.20;;;;;;;;;;5227006;28;20040;-71
2023/07/09 04:46:07;;;;;;;16.67;8.80;;;;;;;;;;5226785;28;20056;-71
2023/07/09 04:48:38;;;;;;;13.82;8.10;;;;;;;;;;5226763;28;20390;-71
2023/07/09 04:51:08;;;;;;;15.73;7.72;;;;;;;;;;5227244;28;20072;-71
2023/07/09 04:53:39;;;;;;;12.82;7.93;;;;;;;;;;5226632;28;20039;-71
2023/07/09 04:56:09;;;;;;;13.07;7.78;;;;;;;;;;5213031;28;20100;-71
2023/07/09 04:58:39;;;;;;;13.98;7.85;;;;;;;;;;5227058;28;20025;-71
2023/07/09 05:01:10;;;;;;;16.48;7.55;;;;;;;;;;5226748;28;20717;-71
2023/07/09 05:03:40;;;;;;;12.85;7.68;;;;;;;;;;5226800;28;20032;-71
2023/07/09 05:06:11;;;;;;;16.05;8.25;;;;;;;;;;5226380;28;20072;-71
2023/07/09 05:08:42;;;;;;;15.57;8.27;;;;;;;;;;5226401;28;20032;-71
2023/07/09 05:11:13;;;;;;;12.48;7.78;;;;;;;;;;5226401;28;20020;-71
2023/07/09 05:13:43;;;;;;;13.77;7.35;;;;;;;;;;5226569;28;20021;-71
2023/07/09 05:16:13;;;;;;;14.85;8.10;;;;;;;;;;5225864;28;20074;-71
2023/07/09 05:18:45;;;;;;;17.48;8.65;;;;;;;;;;5226156;28;20132;-71
2023/07/09 05:21:15;;;;;;;11.80;7.80;;;;;;;;;;5226804;28;20530;-70
2023/07/09 05:23:45;;;;;;;15.68;8.07;;;;;;;;;;5226470;28;20143;-71
2023/07/09 05:26:16;;;;;;;11.77;6.90;;;;;;;;;;5225889;28;20119;-71
2023/07/09 05:28:46;;;;;;;16.45;8.35;;;;;;;;;;5226152;28;20637;-71
2023/07/09 05:31:16;;;;;;;15.15;7.53;;;;;;;;;;5225900;28;20021;-71
2023/07/09 05:33:46;;;;;;;18.27;7.50;;;;;;;;;;5226315;28;20393;-71
2023/07/09 05:36:18;;;;;;;16.83;7.53;;;;;;;;;;5225997;28;20103;-71
2023/07/09 05:38:49;;;;;;;12.55;7.57;;;;;;;;;;5225974;28;20024;-71
2023/07/09 05:41:20;;;;;;;12.35;8.57;;;;;;;;;;5226113;28;20388;-71
2023/07/09 05:43:51;;;;;;;15.38;7.38;;;;;;;;;;5225613;28;20032;-71
2023/07/09 05:46:22;;;;;;;12.18;7.35;;;;;;;;;;5225658;28;20032;-71
2023/07/09 05:48:52;;;;;;;16.08;7.65;;;;;;;;;;5225487;28;20025;-71
2023/07/09 05:51:24;;;;;;;13.23;7.40;;;;;;;;;;5225878;28;20045;-71
2023/07/09 05:53:54;;;;;;;19.13;7.05;;;;;;;;;;5225786;28;20013;-71
2023/07/09 05:56:24;;;;;;;11.85;6.45;;;;;;;;;;5211463;28;20407;-71
2023/07/09 05:58:56;;;;;;;14.82;7.57;;;;;;;;;;5225915;28;20052;-71
2023/07/09 06:01:27;;;;;;;11.10;6.72;;;;;;;;;;5225429;28;20079;-71
2023/07/09 06:03:57;;;;;;;11.70;7.03;;;;;;;;;;5225714;28;20418;-71
2023/07/09 06:06:27;;;;;;;14.63;6.75;;;;;;;;;;5224884;28;20021;-72
2023/07/09 06:08:58;;;;;;;10.98;6.60;;;;;;;;;;5225288;28;20025;-71
2023/07/09 06:11:28;;;;;;;10.73;6.50;;;;;;;;;;5225185;28;20027;-72
2023/07/09 06:13:59;;;;;;;13.27;7.60;;;;;;;;;;5225408;28;20070;-72
2023/07/09 06:16:29;;;;;;;13.18;6.22;;;;;;;;;;5224704;28;20057;-72
2023/07/09 06:18:59;;;;;;;11.40;6.43;;;;;;;;;;5224275;28;20079;-72
2023/07/09 06:21:30;;;;;;;14.03;5.70;;;;;;;;;;5225196;28;20032;-72
2023/07/09 06:24:00;;;;;;;11.87;6.30;;;;;;;;;;5225203;28;20644;-72
2023/07/09 06:26:30;;;;;;;13.53;6.27;;;;;;;;;;5224833;28;20278;-72
2023/07/09 06:29:00;;;;;;;13.10;7.07;;;;;;;;;;5224837;28;20339;-72
2023/07/09 06:31:31;;;;;;;8.83;5.53;;;;;;;;;;5225037;28;20354;-72
2023/07/09 06:34:01;;;;;;;12.98;6.38;;;;;;;;;;5224980;28;20321;-72
2023/07/09 06:36:31;;;;;;;11.23;5.75;;;;;;;;;;5224580;28;20028;-72
2023/07/09 06:39:02;;;;;;;13.73;6.50;;;;;;;;;;5224889;28;20112;-72
2023/07/09 06:41:38;;;;;;;14.57;5.60;;;;;;;;;;5224943;28;20267;-72
2023/07/09 06:44:09;;;;;;;11.95;6.22;;;;;;;;;;5212716;28;20028;-72
2023/07/09 06:46:39;;;;;;;12.07;6.15;;;;;;;;;;5224269;28;20025;-72
2023/07/09 06:49:09;;;;;;;11.75;6.40;;;;;;;;;;5224616;28;20055;-72
2023/07/09 06:51:39;;;;;;;9.80;5.47;;;;;;;;;;5224666;28;20029;-72
2023/07/09 06:54:11;;;;;;;11.77;5.90;;;;;;;;;;5224724;28;20666;-72
2023/07/09 06:56:41;;;;;;;9.65;6.38;;;;;;;;;;5210414;28;20259;-72
2023/07/09 06:59:12;;;;;;;10.57;6.47;;;;;;;;;;5224714;28;20025;-72
2023/07/09 07:01:42;;;;;;;13.53;5.97;;;;;;;;;;5224253;28;20329;-72
2023/07/09 07:04:12;;;;;;;10.35;5.75;;;;;;;;;;5224647;28;20263;-73
2023/07/09 07:06:44;;;;;;;13.27;6.10;;;;;;;;;;5223883;28;20457;-72
2023/07/09 07:09:14;;;;;;;13.20;6.47;;;;;;;;;;5224363;28;20357;-72
2023/07/09 07:11:44;;;;;;;15.00;6.83;;;;;;;;;;5224334;28;20538;-72
2023/07/09 07:14:15;;;;;;;12.38;6.28;;;;;;;;;;5224388;28;20267;-73
2023/07/09 07:16:45;;;;;;;10.03;6.50;;;;;;;;;;5223762;28;20029;-72
2023/07/09 07:19:15;;;;;;;12.73;5.93;;;;;;;;;;5224461;28;20272;-73
2023/07/09 07:21:46;;;;;;;7.90;5.07;;;;;;;;;;5224156;28;20029;-73
2023/07/09 07:24:16;;;;;;;10.73;5.70;;;;;;;;;;5224288;28;20295;-72
2023/07/09 07:26:46;;;;;;;7.90;4.87;;;;;;;;;;5223957;28;20259;-72
2023/07/09 07:29:16;;;;;;;12.77;5.77;;;;;;;;;;5224176;28;20290;-73
2023/07/09 07:31:47;;;;;;;16.73;5.90;;;;;;;;;;5227788;28;20302;-73
2023/07/09 07:34:17;;;;;;;11.35;6.07;;;;;;;;;;5228063;28;20329;-73
2023/07/09 07:36:49;;;;;;;9.77;5.38;;;;;;;;;;5227398;28;20028;-73
2023/07/09 07:39:20;;;;;;;11.95;5.97;;;;;;;;;;5228323;28;20048;-73
2023/07/09 07:41:50;;;;;;;10.23;6.10;;;;;;;;;;5228418;28;20535;-73
2023/07/09 07:44:21;;;;;;;9.30;5.40;;;;;;;;;;5228212;28;20278;-72
2023/07/09 07:46:51;;;;;;;10.95;6.22;;;;;;;;;;5227359;28;20549;-73
2023/07/09 07:49:22;;;;;;;12.50;6.10;;;;;;;;;;5227961;28;20016;-73
2023/07/09 07:51:52;;;;;;;10.98;6.03;;;;;;;;;;5228360;28;20021;-72
2023/07/09 07:54:22;;;;;;;10.30;6.03;;;;;;;;;;5228074;28;20074;-73
2023/07/09 07:56:52;;;;;;;11.85;5.97;;;;;;;;;;5214194;28;20259;-73
2023/07/09 07:59:23;;;;;;;12.50;6.63;;;;;;;;;;5227883;28;20067;-73
2023/07/09 08:01:53;;;;;;;12.40;6.03;;;;;;;;;;5227973;28;20311;-73
2023/07/09 08:04:24;;;;;;;16.38;6.75;;;;;;;;;;5227949;28;20266;-72
2023/07/09 08:06:54;;;;;;;9.65;6.05;;;;;;;;;;5227363;28;20017;-73
2023/07/09 08:09:25;;;;;;;11.93;6.90;;;;;;;;;;5227521;28;20028;-73
2023/07/09 08:11:55;;;;;;;13.47;7.10;;;;;;;;;;5228013;28;20130;-73
2023/07/09 08:14:25;;;;;;;12.75;7.38;;;;;;;;;;5227648;28;20636;-73
2023/07/09 08:16:56;;;;;;;14.77;7.47;;;;;;;;;;5227074;28;20483;-73
2023/07/09 08:19:26;;;;;;;13.60;7.70;;;;;;;;;;5227666;28;20081;-73
2023/07/09 08:21:56;;;;;;;14.37;7.00;;;;;;;;;;5227503;28;20271;-73
2023/07/09 08:24:27;;;;;;;15.32;9.50;;;;;;;;;;5227353;28;20271;-73
2023/07/09 08:27:00;;;;;;;20.10;9.83;;;;;;;;;;5227520;28;20020;-73
2023/07/09 08:29:30;;;;;;;17.92;10.88;;;;;;;;;;5227555;28;20668;-73
2023/07/09 08:32:00;;;;;;;22.03;13.70;;;;;;;;;;5227268;28;20064;-73
2023/07/09 08:34:30;;;;;;;23.37;15.43;;;;;;;;;;5227079;28;20278;-73
2023/07/09 08:37:02;;;;;;;26.50;15.82;;;;;;;;;;5227059;28;20263;-73
2023/07/09 08:39:32;;;;;;;25.75;15.98;;;;;;;;;;5227204;28;20082;-73
2023/07/09 08:42:07;;;;;;;25.47;14.87;;;;;;;;;;5226732;28;20025;-73
2023/07/09 08:44:45;;;;;;;28.38;16.83;;;;;;;;;;5227077;28;20259;-73
2023/07/09 08:47:18;;;;;;;27.25;16.70;;;;;;;;;;5226467;28;20390;-73
2023/07/09 08:49:54;;;;;;;29.42;19.83;;;;;;;;;;5226833;28;20171;-73
2023/07/09 08:52:42;;;;;;;30.38;19.67;;;;;;;;;;5213237;28;20021;-73
2023/07/09 08:55:15;;;;;;;31.92;20.15;;;;;;;;;;5220910;28;20017;-73
2023/07/09 08:57:49;;;;;;;29.83;20.73;;;;;;;;;;5219547;28;20033;-73
2023/07/09 09:00:24;;;;;;;24.83;15.98;;;;;;;;;;5213779;28;20163;-73
2023/07/09 09:02:56;;;;;;;22.75;14.50;;;;;;;;;;5226661;28;20112;-73
2023/07/09 09:05:27;;;;;;;25.63;15.95;;;;;;;;;;5226753;28;20628;-73
2023/07/09 09:08:01;;;;;;;21.45;13.15;;;;;;;;;;5225958;28;20103;-73
2023/07/09 09:10:50;;;;;;;31.67;19.98;;;;;;;;;;5226847;28;20017;-73
2023/07/09 09:13:23;;;;;;;29.83;17.83;;;;;;;;;;5226576;28;20466;-73
2023/07/09 09:15:55;;;;;;;21.25;15.88;;;;;;;;;;5226245;28;20024;-73
2023/07/09 09:18:27;;;;;;;25.58;16.42;;;;;;;;;;5225808;28;20044;-73
2023/07/09 09:21:03;;;;;;;26.65;17.25;;;;;;;;;;5226580;28;20024;-73
2023/07/09 09:23:53;;;;;;;26.40;14.98;;;;;;;;;;5226738;28;20025;-73
2023/07/09 09:26:28;;;;;;;25.75;15.00;;;;;;;;;;5213049;28;20025;-73
2023/07/09 09:28:59;;;;;;;29.70;14.23;;;;;;;;;;5225883;28;20037;-73
2023/07/09 09:31:29;;;;;;;23.58;15.20;;;;;;;;;;5226657;28;20531;-73
2023/07/09 09:34:00;;;;;;;23.85;13.85;;;;;;;;;;5226161;28;20025;-73
2023/07/09 09:36:30;;;;;;;26.67;16.13;;;;;;;;;;5225869;28;20123;-73
2023/07/09 09:39:02;;;;;;;21.98;15.10;;;;;;;;;;5225661;28;20614;-73
2023/07/09 09:41:34;;;;;;;26.65;17.63;;;;;;;;;;5224850;28;20032;-73
2023/07/09 09:44:05;;;;;;;23.23;16.17;;;;;;;;;;5225883;28;20017;-73
2023/07/09 09:46:36;;;;;;;25.08;15.05;;;;;;;;;;5225557;28;20052;-74
2023/07/09 09:49:08;;;;;;;20.80;13.85;;;;;;;;;;5225770;28;20017;-74
2023/07/09 09:51:40;;;;;;;23.67;16.05;;;;;;;;;;5225876;28;20283;-74
2023/07/09 09:54:15;;;;;;;30.48;19.95;;;;;;;;;;5225071;28;20356;-73
2023/07/09 09:56:47;;;;;;;36.15;19.45;;;;;;;;;;5211952;28;20095;-74
2023/07/09 09:59:20;;;;;;;18.27;12.07;;;;;;;;;;5225612;28;20024;-73
2023/07/09 10:02:09;;;;;;;18.10;12.73;;;;;;;;;;5225442;28;20040;-73
2023/07/09 10:04:39;;;;;;;26.00;17.75;;;;;;;;;;5224408;28;20471;-73
2023/07/09 10:07:12;;;;;;;20.00;14.38;;;;;;;;;;5225145;28;20117;-73
2023/07/09 10:09:43;;;;;;;28.70;17.52;;;;;;;;;;5225102;28;20009;-73
2023/07/09 10:12:26;;;;;;;19.40;14.07;;;;;;;;;;5225487;28;20529;-73
2023/07/09 10:15:15;;;;;;;19.63;14.15;;;;;;;;;;5213184;28;20378;-73
2023/07/09 10:17:53;;;;;;;22.10;14.63;;;;;;;;;;5224693;28;20070;-73
2023/07/09 10:20:29;;;;;;;26.45;17.17;;;;;;;;;;5225428;28;20017;-73
2023/07/09 10:23:02;;;;;;;25.27;17.27;;;;;;;;;;5224932;28;20044;-73
2023/07/09 10:25:39;;;;;;;29.75;19.42;;;;;;;;;;5224972;28;20025;-73
2023/07/09 10:28:28;;;;;;;29.95;19.83;;;;;;;;;;5225130;28;20078;-73
2023/07/09 10:31:17;;;;;;;28.40;17.30;;;;;;;;;;5225201;28;20091;-73
2023/07/09 10:33:48;;;;;;;22.85;16.50;;;;;;;;;;5224903;28;20025;-73
2023/07/09 10:36:19;;;;;;;26.52;17.33;;;;;;;;;;5224693;28;20025;-73
2023/07/09 10:38:55;;;;;;;29.93;18.13;;;;;;;;;;5225175;28;20116;-73
2023/07/09 10:41:25;;;;;;;27.45;16.60;;;;;;;;;;5225130;28;20324;-73
2023/07/09 10:43:56;;;;;;;27.02;15.48;;;;;;;;;;5224415;28;20033;-73
2023/07/09 10:46:29;;;;;;;28.40;14.30;;;;;;;;;;5224586;28;20035;-73
2023/07/09 10:49:02;;;;;;;22.02;11.50;;;;;;;;;;5224627;28;20283;-74
2023/07/09 10:51:37;;;;;;;19.45;11.48;;;;;;;;;;5225046;28;20023;-74
2023/07/09 10:54:07;;;;;;;;;;;;;;;;;;5225074;28;20063;-73
2023/07/09 10:56:38;;;;;;;11.60;8.00;;;;;;;;;;5210776;28;19905;-73
2023/07/09 10:59:19;;;;;;;17.02;8.63;;;;;;;;;;5224661;28;20382;-74
2023/07/09 11:01:51;;;;;;;12.85;7.65;;;;;;;;;;5224404;28;20486;-73
2023/07/09 11:04:40;;;;;;;13.77;8.10;;;;;;;;;;5224582;28;20031;-73
2023/07/09 11:07:12;;;;;;;18.02;8.57;;;;;;;;;;5224458;28;20028;-73
2023/07/09 11:09:45;;;;;;;13.77;8.52;;;;;;;;;;5224493;28;20013;-73
2023/07/09 11:12:18;;;;;;;17.83;8.63;;;;;;;;;;5224639;28;20021;-73
2023/07/09 11:14:48;;;;;;;12.40;7.43;;;;;;;;;;5224035;28;20024;-73
2023/07/09 11:17:20;;;;;;;12.03;7.03;;;;;;;;;;5223949;28;20040;-73
2023/07/09 11:20:09;;;;;;;10.50;6.00;;;;;;;;;;5224316;28;20267;-73
2023/07/09 11:22:40;;;;;;;8.65;5.97;;;;;;;;;;5224364;28;20017;-73
2023/07/09 11:25:11;;;;;;;12.05;6.05;;;;;;;;;;5224356;28;20024;-73
2023/07/09 11:28:00;;;;;;;13.02;5.70;;;;;;;;;;5223715;28;20029;-73
2023/07/09 11:30:30;;;;;;;12.98;6.03;;;;;;;;;;5224766;28;20490;-73
2023/07/09 11:33:02;;;;;;;11.93;5.35;;;;;;;;;;5224638;28;20032;-73
2023/07/09 11:35:48;;;;;;;13.70;6.90;;;;;;;;;;5224169;28;20075;-72
2023/07/09 11:38:20;;;;;;;13.15;6.93;;;;;;;;;;5222935;28;20052;-73
2023/07/09 11:40:52;;;;;;;15.32;7.43;;;;;;;;;;5211202;28;20013;-73
2023/07/09 11:43:33;;;;;;;16.88;7.75;;;;;;;;;;5224176;28;20028;-73
2023/07/09 11:46:10;;;;;;;19.35;9.27;;;;;;;;;;5223942;28;20024;-72
2023/07/09 11:48:41;;;;;;;14.35;7.68;;;;;;;;;;5224023;28;20408;-72
2023/07/09 11:51:27;;;;;;;14.77;7.88;;;;;;;;;;5224425;28;20017;-72
2023/07/09 11:53:58;;;;;;;14.57;8.98;;;;;;;;;;5211706;28;20017;-72
2023/07/09 11:56:29;;;;;;;18.63;8.90;;;;;;;;;;5209882;28;20086;-73
2023/07/09 11:58:59;;;;;;;15.55;8.27;;;;;;;;;;5223925;28;20112;-72
2023/07/09 12:01:35;;;;;;;16.42;7.93;;;;;;;;;;5223994;28;20124;-72
2023/07/09 12:04:06;;;;;;;12.20;6.85;;;;;;;;;;5224145;28;20367;-72
2023/07/09 12:06:38;;;;;;;12.27;7.57;;;;;;;;;;5223605;28;20036;-72
2023/07/09 12:09:14;;;;;;;13.27;6.40;;;;;;;;;;5223315;28;20025;-72
2023/07/09 12:11:46;;;;;;;12.40;6.65;;;;;;;;;;5224122;28;20029;-72
2023/07/09 12:14:17;;;;;;;9.90;6.38;;;;;;;;;;5223753;28;20013;-72
2023/07/09 12:16:50;;;;;;;10.48;6.65;;;;;;;;;;5223506;28;20100;-72
2023/07/09 12:19:21;;;;;;;13.23;6.20;;;;;;;;;;5227560;28;20119;-72
2023/07/09 12:21:55;;;;;;;12.73;5.78;;;;;;;;;;5227362;28;20025;-72
2023/07/09 12:24:27;;;;;;;10.00;5.78;;;;;;;;;;5227347;28;20021;-72
2023/07/09 12:26:59;;;;;;;10.13;5.80;;;;;;;;;;5227271;28;20028;-72
2023/07/09 12:29:34;;;;;;;11.00;5.43;;;;;;;;;;5213982;28;20028;-72
2023/07/09 12:32:11;;;;;;;13.63;5.10;;;;;;;;;;5227060;28;20021;-72
2023/07/09 12:34:41;;;;;;;7.03;4.55;;;;;;;;;;5227680;28;20021;-72
2023/07/09 12:37:13;;;;;;;9.50;5.15;;;;;;;;;;5226931;28;20044;-72
2023/07/09 12:39:43;;;;;;;8.90;4.93;;;;;;;;;;5227130;28;20024;-72
2023/07/09 12:42:29;;;;;;;12.20;5.50;;;;;;;;;;5227430;28;20017;-72
2023/07/09 12:45:00;;;;;;;9.63;5.13;;;;;;;;;;5226855;28;20048;-72
2023/07/09 12:47:30;;;;;;;8.40;5.13;;;;;;;;;;5226985;28;20466;-72
2023/07/09 12:50:02;;;;;;;13.18;5.15;;;;;;;;;;5226801;28;20083;-72
2023/07/09 12:52:32;;;;;;;10.43;4.85;;;;;;;;;;5227193;28;20478;-71
2023/07/09 12:55:02;;;;;;;14.48;5.00;;;;;;;;;;5222259;28;20029;-72
2023/07/09 12:57:38;;;;;;;12.80;5.13;;;;;;;;;;5217574;28;20066;-72
2023/07/09 13:00:14;;;;;;;12.40;5.15;;;;;;;;;;5225474;28;20033;-73
2023/07/09 13:02:44;;;;;;;12.90;6.10;;;;;;;;;;5226649;28;20033;-73
2023/07/09 13:05:30;;;;;;;17.35;5.88;;;;;;;;;;5226569;28;20379;-72
2023/07/09 13:08:00;;;;;;;21.48;6.72;;;;;;;;;;5226214;28;20072;-72
2023/07/09 13:10:31;;;;;;;14.52;6.78;;;;;;;;;;5226432;28;20009;-72
2023/07/09 13:13:02;;;;;;;18.23;7.22;;;;;;;;;;5226618;28;20089;-71
2023/07/09 13:15:49;;;;;;;13.48;7.43;;;;;;;;;;5226417;28;20021;-72
2023/07/09 13:18:19;;;;;;;12.32;7.32;;;;;;;;;;5226447;28;20036;-72
2023/07/09 13:20:50;;;;;;;17.73;7.50;;;;;;;;;;5226476;28;20021;-72
2023/07/09 13:23:22;;;;;;;18.88;8.27;;;;;;;;;;5226528;28;20024;-72
2023/07/09 13:25:54;;;;;;;13.32;7.90;;;;;;;;;;5225780;28;20028;-72
2023/07/09 13:28:28;;;;;;;16.58;8.73;;;;;;;;;;5225733;28;20021;-72
2023/07/09 13:31:00;;;;;;;17.00;9.48;;;;;;;;;;5226175;28;20017;-72
2023/07/09 13:33:30;;;;;;;15.70;8.93;;;;;;;;;;5226056;28;20096;-72
2023/07/09 13:36:01;;;;;;;13.27;8.30;;;;;;;;;;5225894;28;20471;-72
2023/07/09 13:38:31;;;;;;;16.98;8.88;;;;;;;;;;5226232;28;20025;-72
2023/07/09 13:41:10;;;;;;;22.50;8.93;;;;;;;;;;5225864;28;20025;-72
2023/07/09 13:43:42;;;;;;;14.45;8.32;;;;;;;;;;5225959;28;20343;-72
2023/07/09 13:46:12;;;;;;;17.20;8.30;;;;;;;;;;5225605;28;20025;-73
2023/07/09 13:48:44;;;;;;;15.82;8.40;;;;;;;;;;5225661;28;20028;-72
2023/07/09 13:51:14;;;;;;;14.57;7.82;;;;;;;;;;5225462;28;20017;-72
2023/07/09 13:53:45;;;;;;;15.68;7.68;;;;;;;;;;5225664;28;20358;-72
2023/07/09 13:56:15;;;;;;;18.90;8.15;;;;;;;;;;5211985;28;20014;-73
2023/07/09 13:58:45;;;;;;;13.98;7.88;;;;;;;;;;5225781;28;20581;-73
2023/07/09 14:01:18;;;;;;;16.77;9.13;;;;;;;;;;5225636;28;20036;-73
2023/07/09 14:03:48;;;;;;;16.35;8.10;;;;;;;;;;5225261;28;20020;-73
2023/07/09 14:06:19;;;;;;;14.90;9.23;;;;;;;;;;5225227;28;20081;-72
2023/07/09 14:08:49;;;;;;;15.50;7.22;;;;;;;;;;5225345;28;20021;-72
2023/07/09 14:11:21;;;;;;;14.70;8.57;;;;;;;;;;5225413;28;20027;-72
2023/07/09 14:13:52;;;;;;;15.50;9.00;;;;;;;;;;5225399;28;20037;-72
2023/07/09 14:16:22;;;;;;;14.90;8.07;;;;;;;;;;5224492;28;20028;-72
2023/07/09 14:18:53;;;;;;;11.68;6.68;;;;;;;;;;5225179;28;20024;-72
2023/07/09 14:21:26;;;;;;;15.90;7.00;;;;;;;;;;5225577;28;20104;-72
2023/07/09 14:23:56;;;;;;;18.23;6.57;;;;;;;;;;5225240;28;20025;-72
2023/07/09 14:26:26;;;;;;;11.65;6.30;;;;;;;;;;5224878;28;20025;-73
2023/07/09 14:28:59;;;;;;;9.13;5.68;;;;;;;;;;5224781;28;20075;-72
2023/07/09 14:31:32;;;;;;;15.75;6.70;;;;;;;;;;5225372;28;20124;-72
2023/07/09 14:34:21;;;;;;;11.80;5.30;;;;;;;;;;5224984;28;20017;-71
2023/07/09 14:36:52;;;;;;;12.57;5.40;;;;;;;;;;5224340;28;20013;-71
2023/07/09 14:39:23;;;;;;;12.38;5.85;;;;;;;;;;5224505;28;20490;-72
2023/07/09 14:41:53;;;;;;;12.75;6.05;;;;;;;;;;5224881;28;20120;-72
2023/07/09 14:44:27;;;;;;;10.48;5.78;;;;;;;;;;5224885;28;20024;-72
2023/07/09 14:47:00;;;;;;;10.35;5.22;;;;;;;;;;5224483;28;20017;-72
2023/07/09 14:49:31;;;;;;;10.40;5.88;;;;;;;;;;5224482;28;20387;-72
2023/07/09 14:52:02;;;;;;;9.88;4.90;;;;;;;;;;5224731;28;20368;-72
2023/07/09 14:54:33;;;;;;;8.35;4.72;;;;;;;;;;5223212;28;20025;-72
2023/07/09 14:57:08;;;;;;;10.73;4.63;;;;;;;;;;5211131;28;20151;-72